Time;durP1;ratioP1;P1;durP2;ratioP2;P2;SDS_P1;SDS_P2;PMS_P1;PMS_P2;Temp;Humidity;BMP_temperature;BMP_pressure;BME280_temperature;BME280_humidity;BME280_pressure;Samples;Min_cycle;Max_cycle;Signal;HPM_P1;HPM_P2
2021/12/15 00:01:42;;;;;;;43.50;10.88;;;;;;;;;;4994796;28;20053;-37
2021/12/15 00:04:08;;;;;;;40.65;9.45;;;;;;;;;;5012468;28;20034;-37
2021/12/15 00:06:34;;;;;;;41.53;10.35;;;;;;;;;;5012508;28;20033;-37
2021/12/15 00:09:01;;;;;;;47.22;10.85;;;;;;;;;;5016406;28;20536;-37
2021/12/15 00:11:33;;;;;;;44.38;11.45;;;;;;;;;;5016000;28;20478;-37
2021/12/15 00:14:00;;;;;;;66.63;11.45;;;;;;;;;;5016339;28;20120;-37
2021/12/15 00:16:27;;;;;;;37.75;9.07;;;;;;;;;;5016468;28;20026;-36
2021/12/15 00:18:52;;;;;;;56.13;9.45;;;;;;;;;;5016119;28;20108;-37
2021/12/15 00:21:19;;;;;;;65.90;9.60;;;;;;;;;;5016316;28;20111;-37
2021/12/15 00:23:46;;;;;;;19.90;6.93;;;;;;;;;;5016041;28;20592;-37
2021/12/15 00:26:12;;;;;;;40.60;9.90;;;;;;;;;;5016027;28;20486;-37
2021/12/15 00:28:38;;;;;;;47.53;9.73;;;;;;;;;;5016175;28;20026;-36
2021/12/15 00:54:36;;;;;;;40.75;11.73;;;;;;;;;;5015501;28;20036;-37
2021/12/15 00:57:03;;;;;;;36.75;11.02;;;;;;;;;;5015727;28;20036;-37
2021/12/15 00:59:29;;;;;;;39.33;9.63;;;;;;;;;;5015701;28;20516;-36
2021/12/15 01:01:54;;;;;;;27.77;10.55;;;;;;;;;;5015239;28;20026;-37
2021/12/15 01:05:06;;;;;;;43.63;12.60;;;;;;;;;;5015521;28;20037;-37
2021/12/15 01:07:33;;;;;;;36.42;10.85;;;;;;;;;;5015094;28;20105;-37
2021/12/15 01:09:59;;;;;;;31.65;11.27;;;;;;;;;;5015451;28;20105;-37
2021/12/15 01:20:56;;;;;;;34.17;11.23;;;;;;;;;;5015079;28;20052;-37
2021/12/15 01:23:25;;;;;;;37.17;11.77;;;;;;;;;;5015138;28;20054;-37
2021/12/15 01:26:00;;;;;;;41.47;12.73;;;;;;;;;;5014033;28;20437;-37
2021/12/15 01:28:26;;;;;;;30.95;10.48;;;;;;;;;;5014913;28;20061;-37
2021/12/15 01:30:54;;;;;;;44.42;11.45;;;;;;;;;;5015107;28;20032;-37
2021/12/15 01:33:20;;;;;;;44.95;10.80;;;;;;;;;;5015010;28;20033;-37
2021/12/15 01:35:49;;;;;;;33.33;9.35;;;;;;;;;;5014711;28;20549;-37
2021/12/15 01:38:17;;;;;;;34.58;9.30;;;;;;;;;;5014649;28;20597;-37
2021/12/15 01:40:44;;;;;;;37.92;10.52;;;;;;;;;;5013354;28;20034;-37
2021/12/15 01:49:00;;;;;;;37.45;9.55;;;;;;;;;;4999962;28;20116;-37
2021/12/15 01:51:26;;;;;;;35.60;10.35;;;;;;;;;;5014616;28;20359;-37
2021/12/15 01:53:53;;;;;;;26.35;8.27;;;;;;;;;;5014640;28;20032;-37
2021/12/15 01:56:18;;;;;;;21.98;9.38;;;;;;;;;;5014636;28;20032;-37
2021/12/15 01:58:44;;;;;;;29.05;7.80;;;;;;;;;;5014209;28;20037;-37
2021/12/15 02:01:10;;;;;;;33.10;10.60;;;;;;;;;;5014284;28;20018;-36
2021/12/15 02:03:38;;;;;;;26.83;8.48;;;;;;;;;;5014440;28;20034;-36
2021/12/15 02:06:05;;;;;;;39.90;9.95;;;;;;;;;;5014095;28;20030;-36
2021/12/15 02:08:31;;;;;;;30.70;10.75;;;;;;;;;;5014306;28;20153;-36
2021/12/15 02:10:57;;;;;;;38.25;9.30;;;;;;;;;;5014139;28;20116;-37
2021/12/15 02:13:23;;;;;;;27.88;9.43;;;;;;;;;;5013989;28;20030;-37
2021/12/15 02:15:54;;;;;;;39.00;10.35;;;;;;;;;;5013972;28;20032;-37
2021/12/15 02:18:25;;;;;;;38.33;11.27;;;;;;;;;;5014231;28;20409;-37
2021/12/15 02:20:57;;;;;;;46.70;9.20;;;;;;;;;;5013860;28;20470;-37
2021/12/15 02:23:32;;;;;;;33.95;9.43;;;;;;;;;;5014087;28;20030;-37
2021/12/15 02:25:59;;;;;;;40.50;10.65;;;;;;;;;;5014042;28;20037;-37
2021/12/15 02:28:25;;;;;;;34.55;9.20;;;;;;;;;;5013691;28;20022;-37
2021/12/15 02:31:01;;;;;;;35.03;9.32;;;;;;;;;;5012538;28;20494;-37
2021/12/15 02:38:48;;;;;;;39.83;10.77;;;;;;;;;;5013677;28;20545;-37
2021/12/15 02:41:23;;;;;;;42.42;10.60;;;;;;;;;;5013735;28;20057;-36
2021/12/15 02:44:17;;;;;;;24.70;9.75;;;;;;;;;;5013494;28;20036;-37
2021/12/15 02:46:43;;;;;;;32.55;8.80;;;;;;;;;;5011244;28;20034;-37
2021/12/15 02:49:12;;;;;;;23.13;9.50;;;;;;;;;;5013631;28;20026;-37
2021/12/15 02:51:39;;;;;;;27.40;9.55;;;;;;;;;;5013186;28;20105;-37
2021/12/15 02:54:07;;;;;;;34.13;9.73;;;;;;;;;;5013206;28;20033;-37
2021/12/15 02:56:34;;;;;;;24.88;10.02;;;;;;;;;;5013238;28;20030;-37
2021/12/15 02:59:03;;;;;;;24.05;10.05;;;;;;;;;;5013262;28;20065;-37
2021/12/15 03:01:53;;;;;;;24.58;8.93;;;;;;;;;;5013099;28;20117;-37
2021/12/15 03:06:56;;;;;;;19.85;8.25;;;;;;;;;;5013363;28;20040;-37
2021/12/15 03:17:39;;;;;;;29.00;8.98;;;;;;;;;;5013239;28;20426;-37
2021/12/15 03:20:08;;;;;;;47.92;10.55;;;;;;;;;;5012848;28;20037;-37
2021/12/15 03:22:34;;;;;;;34.67;9.77;;;;;;;;;;5012842;28;20050;-37
2021/12/15 03:25:01;;;;;;;29.40;10.43;;;;;;;;;;5013074;28;20109;-37
2021/12/15 03:33:17;;;;;;;31.13;10.18;;;;;;;;;;5011523;28;20529;-37
2021/12/15 03:36:00;;;;;;;28.58;9.60;;;;;;;;;;5012775;28;20026;-37
2021/12/15 03:38:30;;;;;;;26.67;9.52;;;;;;;;;;5012767;28;20389;-37
2021/12/15 03:40:56;;;;;;;29.73;10.27;;;;;;;;;;5012944;28;20438;-37
2021/12/15 03:43:22;;;;;;;22.98;8.27;;;;;;;;;;5012482;28;20490;-37
2021/12/15 03:45:57;;;;;;;23.92;8.88;;;;;;;;;;5012816;28;20033;-37
2021/12/15 03:48:26;;;;;;;25.73;8.80;;;;;;;;;;5012513;28;20156;-37
2021/12/15 03:50:53;;;;;;;21.33;8.20;;;;;;;;;;5012752;28;20057;-37
2021/12/15 03:53:19;;;;;;;28.55;10.90;;;;;;;;;;5012326;28;20121;-36
2021/12/15 03:55:46;;;;;;;29.98;11.10;;;;;;;;;;5012417;28;20030;-37
2021/12/15 03:58:15;;;;;;;31.73;10.38;;;;;;;;;;5012454;28;20029;-36
2021/12/15 04:00:48;;;;;;;32.80;10.73;;;;;;;;;;5012386;28;20026;-37
2021/12/15 04:03:20;;;;;;;42.85;12.18;;;;;;;;;;5012734;28;20033;-37
2021/12/15 04:05:45;;;;;;;33.60;11.25;;;;;;;;;;5012676;28;20042;-37
2021/12/15 04:08:11;;;;;;;38.47;11.40;;;;;;;;;;5012376;28;20030;-36
2021/12/15 04:10:37;;;;;;;36.10;11.35;;;;;;;;;;5012367;28;20026;-37
2021/12/15 04:13:03;;;;;;;42.22;12.77;;;;;;;;;;5012535;28;20060;-37
2021/12/15 04:15:31;;;;;;;40.55;11.57;;;;;;;;;;5012395;28;20112;-37
2021/12/15 04:18:00;;;;;;;37.08;12.50;;;;;;;;;;5012658;28;20088;-38
2021/12/15 04:20:33;;;;;;;25.05;8.90;;;;;;;;;;5012610;28;20026;-37
2021/12/15 04:23:00;;;;;;;34.20;11.15;;;;;;;;;;5012574;28;20037;-37
2021/12/15 04:25:29;;;;;;;34.90;11.85;;;;;;;;;;5012516;28;20113;-37
2021/12/15 04:28:01;;;;;;;35.40;9.95;;;;;;;;;;5012492;28;20029;-36
2021/12/15 04:30:29;;;;;;;53.00;14.57;;;;;;;;;;5012097;28;20109;-36
2021/12/15 04:32:57;;;;;;;40.85;12.18;;;;;;;;;;5010958;28;20033;-36
2021/12/15 04:35:23;;;;;;;19.80;8.13;;;;;;;;;;5012085;28;20026;-36
2021/12/15 04:37:51;;;;;;;41.10;12.07;;;;;;;;;;5012116;28;20026;-38
2021/12/15 04:40:20;;;;;;;30.85;9.68;;;;;;;;;;5012341;28;20030;-37
2021/12/15 04:42:45;;;;;;;38.10;11.05;;;;;;;;;;5011973;28;20034;-37
2021/12/15 04:45:14;;;;;;;28.60;9.13;;;;;;;;;;5012272;28;20033;-36
2021/12/15 04:47:40;;;;;;;20.48;8.43;;;;;;;;;;5012020;28;20072;-36
2021/12/15 04:50:08;;;;;;;24.00;9.00;;;;;;;;;;5012367;28;20421;-38
2021/12/15 04:52:34;;;;;;;18.20;7.65;;;;;;;;;;5011933;28;20041;-38
2021/12/15 04:55:02;;;;;;;22.33;8.20;;;;;;;;;;5014316;28;20029;-38
2021/12/15 04:57:28;;;;;;;23.23;9.20;;;;;;;;;;5015863;28;20026;-38
2021/12/15 04:59:54;;;;;;;30.33;9.05;;;;;;;;;;5015732;28;20072;-38
2021/12/15 05:02:21;;;;;;;16.85;7.43;;;;;;;;;;5015669;28;20021;-38
2021/12/15 05:04:47;;;;;;;30.58;10.60;;;;;;;;;;5015342;28;20037;-39
2021/12/15 05:07:13;;;;;;;26.05;9.80;;;;;;;;;;5015369;28;20104;-38
2021/12/15 05:09:40;;;;;;;34.90;10.60;;;;;;;;;;5015546;28;20026;-39
2021/12/15 05:12:06;;;;;;;19.35;6.13;;;;;;;;;;5014876;28;20506;-39
2021/12/15 05:14:33;;;;;;;29.55;9.73;;;;;;;;;;5015100;28;20041;-38
2021/12/15 05:16:59;;;;;;;31.60;10.00;;;;;;;;;;5015355;28;20123;-38
2021/12/15 05:19:26;;;;;;;30.73;10.35;;;;;;;;;;5015047;28;20474;-37
2021/12/15 05:21:53;;;;;;;34.13;10.07;;;;;;;;;;5014901;28;20033;-38
2021/12/15 05:27:27;;;;;;;30.27;9.63;;;;;;;;;;5015048;28;20030;-38
2021/12/15 05:29:53;;;;;;;25.35;9.27;;;;;;;;;;4981509;28;20397;-37
2021/12/15 05:32:21;;;;;;;24.60;9.90;;;;;;;;;;5015035;28;20022;-38
2021/12/15 05:34:50;;;;;;;27.83;10.10;;;;;;;;;;5014867;28;20042;-38
2021/12/15 05:37:17;;;;;;;25.90;11.30;;;;;;;;;;5014803;28;20026;-38
2021/12/15 05:39:45;;;;;;;35.40;11.35;;;;;;;;;;5014622;28;20430;-39
2021/12/15 05:42:10;;;;;;;30.23;9.05;;;;;;;;;;5014733;28;20029;-38
2021/12/15 05:44:37;;;;;;;26.65;10.75;;;;;;;;;;5014605;28;20390;-38
2021/12/15 05:47:05;;;;;;;35.92;11.90;;;;;;;;;;5014541;28;20121;-39
2021/12/15 05:49:30;;;;;;;38.28;10.98;;;;;;;;;;5014704;28;20104;-38
2021/12/15 05:51:57;;;;;;;30.98;11.52;;;;;;;;;;5014370;28;20108;-38
2021/12/15 05:54:23;;;;;;;36.45;12.77;;;;;;;;;;5014357;28;20502;-38
2021/12/15 05:56:49;;;;;;;23.92;8.85;;;;;;;;;;5014630;28;20034;-38
2021/12/15 05:59:16;;;;;;;32.60;11.18;;;;;;;;;;5014585;28;20092;-38
2021/12/15 06:01:41;;;;;;;17.67;8.85;;;;;;;;;;5014214;28;20114;-38
2021/12/15 06:04:08;;;;;;;35.20;13.02;;;;;;;;;;5014240;28;20109;-38
2021/12/15 06:06:34;;;;;;;42.35;15.65;;;;;;;;;;5014204;28;20087;-38
2021/12/15 06:09:02;;;;;;;35.72;13.45;;;;;;;;;;5014126;28;20030;-39
2021/12/15 06:11:28;;;;;;;45.88;14.85;;;;;;;;;;4996209;28;20046;-39
2021/12/15 06:13:54;;;;;;;56.63;21.75;;;;;;;;;;5014247;28;20029;-37
2021/12/15 06:16:21;;;;;;;55.30;23.65;;;;;;;;;;5014359;28;20096;-37
2021/12/15 06:18:48;;;;;;;44.10;15.05;;;;;;;;;;5014090;28;20149;-38
2021/12/15 06:21:14;;;;;;;38.17;13.07;;;;;;;;;;5013941;28;20489;-37
2021/12/15 06:23:40;;;;;;;43.15;14.85;;;;;;;;;;5014161;28;20076;-38
2021/12/15 06:26:07;;;;;;;40.08;13.82;;;;;;;;;;5013881;28;20061;-38
2021/12/15 06:28:34;;;;;;;41.15;14.98;;;;;;;;;;5014122;28;20359;-38
2021/12/15 06:31:01;;;;;;;23.67;11.25;;;;;;;;;;5014045;28;20029;-37
2021/12/15 06:33:27;;;;;;;33.60;12.43;;;;;;;;;;5013638;28;20486;-37
2021/12/15 06:35:56;;;;;;;34.95;12.38;;;;;;;;;;5013696;28;20033;-37
2021/12/15 06:38:25;;;;;;;36.60;13.82;;;;;;;;;;5013885;28;20429;-37
2021/12/15 06:40:51;;;;;;;32.65;12.77;;;;;;;;;;5013536;28;20029;-37
2021/12/15 06:43:17;;;;;;;32.47;11.82;;;;;;;;;;5013759;28;20022;-38
2021/12/15 06:46:03;;;;;;;33.22;12.73;;;;;;;;;;5013413;28;20114;-38
2021/12/15 06:59:28;;;;;;;30.30;11.80;;;;;;;;;;5013595;28;20040;-37
2021/12/15 07:01:54;;;;;;;33.92;13.35;;;;;;;;;;5013436;28;20029;-38
2021/12/15 07:04:21;;;;;;;29.85;11.88;;;;;;;;;;5013105;28;20109;-37
2021/12/15 07:06:48;;;;;;;33.10;11.85;;;;;;;;;;5013057;28;20018;-38
2021/12/15 07:09:14;;;;;;;30.50;10.98;;;;;;;;;;5013099;28;20036;-38
2021/12/15 07:11:40;;;;;;;31.30;13.02;;;;;;;;;;5012712;28;20046;-37
2021/12/15 07:14:06;;;;;;;26.27;11.35;;;;;;;;;;5013279;28;20386;-38
2021/12/15 07:16:33;;;;;;;24.02;10.05;;;;;;;;;;5012307;28;20037;-37
2021/12/15 07:19:29;;;;;;;25.67;10.80;;;;;;;;;;5012956;28;20025;-38
2021/12/15 07:22:06;;;;;;;26.75;10.48;;;;;;;;;;5011753;28;20040;-37
2021/12/15 07:24:33;;;;;;;10.15;6.03;;;;;;;;;;5012856;28;20029;-37
2021/12/15 07:27:00;;;;;;;25.05;10.75;;;;;;;;;;5012818;28;20030;-38
2021/12/15 07:29:29;;;;;;;21.65;9.77;;;;;;;;;;5012791;28;20485;-37
2021/12/15 07:31:57;;;;;;;2.60;2.40;;;;;;;;;;5012608;28;20117;-37
2021/12/15 07:34:22;;;;;;;29.80;11.05;;;;;;;;;;5012741;28;20046;-37
2021/12/15 07:36:48;;;;;;;12.57;6.20;;;;;;;;;;5012709;28;20029;-38
2021/12/15 07:39:15;;;;;;;18.00;6.97;;;;;;;;;;5013013;28;20034;-38
2021/12/15 07:41:52;;;;;;;22.35;9.40;;;;;;;;;;5012548;28;20478;-37
2021/12/15 07:44:20;;;;;;;26.08;10.02;;;;;;;;;;5012902;28;20026;-38
2021/12/15 07:46:50;;;;;;;23.35;11.00;;;;;;;;;;5012651;28;20056;-38
2021/12/15 07:49:18;;;;;;;;;;;;;;;;;;5013342;28;20053;-37
2021/12/15 07:51:45;;;;;;;30.08;12.00;;;;;;;;;;5012601;28;19913;-38
2021/12/15 07:54:12;;;;;;;22.02;8.70;;;;;;;;;;5012759;28;20022;-37
2021/12/15 07:56:37;;;;;;;33.63;13.80;;;;;;;;;;5012750;28;20099;-37
2021/12/15 07:59:03;;;;;;;30.65;13.35;;;;;;;;;;5012740;28;20474;-36
2021/12/15 08:01:29;;;;;;;18.48;9.15;;;;;;;;;;5012281;28;20057;-38
2021/12/15 08:03:55;;;;;;;20.17;7.93;;;;;;;;;;5012373;28;20113;-37
2021/12/15 08:06:23;;;;;;;33.47;12.07;;;;;;;;;;5012499;28;20018;-37
2021/12/15 08:08:49;;;;;;;17.00;7.97;;;;;;;;;;5012564;28;20033;-37
2021/12/15 08:11:16;;;;;;;24.23;10.27;;;;;;;;;;5011940;28;20513;-37
2021/12/15 08:13:42;;;;;;;36.88;14.07;;;;;;;;;;5012093;28;20033;-37
2021/12/15 08:16:07;;;;;;;36.92;14.38;;;;;;;;;;5012468;28;20029;-37
2021/12/15 08:18:33;;;;;;;35.80;14.90;;;;;;;;;;5012527;28;20018;-37
2021/12/15 08:21:00;;;;;;;38.25;13.45;;;;;;;;;;5012319;28;20586;-38
2021/12/15 08:23:26;;;;;;;32.83;12.40;;;;;;;;;;5012259;28;20458;-37
2021/12/15 08:25:52;;;;;;;35.58;13.77;;;;;;;;;;5012192;28;20038;-37
2021/12/15 08:28:18;;;;;;;32.35;12.73;;;;;;;;;;5013618;28;20026;-38
2021/12/15 08:30:47;;;;;;;29.85;12.02;;;;;;;;;;5015916;28;20030;-37
2021/12/15 08:33:18;;;;;;;31.83;12.07;;;;;;;;;;5016107;28;20037;-37
2021/12/15 08:36:08;;;;;;;27.13;11.70;;;;;;;;;;5015895;28;20022;-38
2021/12/15 08:38:38;;;;;;;31.88;12.23;;;;;;;;;;5015740;28;20496;-37
2021/12/15 08:41:11;;;;;;;31.98;12.02;;;;;;;;;;5015836;28;20124;-37
2021/12/15 08:43:38;;;;;;;30.30;12.00;;;;;;;;;;5015741;28;20536;-37
2021/12/15 08:46:08;;;;;;;26.77;11.75;;;;;;;;;;5015769;28;20160;-38
2021/12/15 08:48:35;;;;;;;26.88;11.38;;;;;;;;;;5015910;28;20041;-37
2021/12/15 08:51:03;;;;;;;35.10;13.55;;;;;;;;;;5015535;28;20464;-38
2021/12/15 08:53:29;;;;;;;23.63;9.13;;;;;;;;;;5015759;28;20121;-37
2021/12/15 08:55:55;;;;;;;29.10;11.15;;;;;;;;;;5015419;28;20302;-37
2021/12/15 08:58:22;;;;;;;30.50;12.68;;;;;;;;;;5015427;28;20026;-38
2021/12/15 09:00:50;;;;;;;32.38;14.75;;;;;;;;;;5015619;28;20026;-37
2021/12/15 09:03:17;;;;;;;34.83;14.73;;;;;;;;;;5015252;28;20088;-37
2021/12/15 09:05:44;;;;;;;30.95;13.43;;;;;;;;;;5015771;28;20041;-37
2021/12/15 09:08:12;;;;;;;44.08;23.38;;;;;;;;;;5016269;28;20377;-38
2021/12/15 09:10:40;;;;;;;40.75;20.55;;;;;;;;;;5015951;28;20033;-37
2021/12/15 09:13:07;;;;;;;31.38;14.15;;;;;;;;;;5015749;28;20040;-37
2021/12/15 09:15:33;;;;;;;31.17;13.57;;;;;;;;;;5016044;28;20030;-37
2021/12/15 09:17:59;;;;;;;35.70;14.10;;;;;;;;;;5015724;28;20029;-37
2021/12/15 09:20:28;;;;;;;31.48;14.10;;;;;;;;;;5015791;28;20026;-37
2021/12/15 09:22:55;;;;;;;28.58;14.75;;;;;;;;;;5015913;28;20022;-38
2021/12/15 09:25:21;;;;;;;33.58;15.45;;;;;;;;;;5015460;28;20037;-38
2021/12/15 09:27:47;;;;;;;30.90;13.55;;;;;;;;;;5015523;28;20021;-37
2021/12/15 09:30:19;;;;;;;24.02;12.32;;;;;;;;;;5015747;28;20030;-37
2021/12/15 09:32:46;;;;;;;32.92;14.27;;;;;;;;;;5015395;28;20029;-37
2021/12/15 09:35:14;;;;;;;39.50;16.98;;;;;;;;;;5015467;28;20026;-38
2021/12/15 09:37:41;;;;;;;48.70;21.83;;;;;;;;;;5015593;28;20022;-37
2021/12/15 09:40:10;;;;;;;44.03;20.70;;;;;;;;;;5014658;28;20030;-38
2021/12/15 09:42:39;;;;;;;45.25;20.85;;;;;;;;;;5014993;28;20095;-38
2021/12/15 10:19:53;;;;;;;33.88;16.17;;;;;;;;;;5012908;28;20026;-37
2021/12/15 10:22:31;;;;;;;40.10;18.95;;;;;;;;;;5014007;28;20025;-39
2021/12/15 10:25:08;;;;;;;27.42;12.52;;;;;;;;;;5014257;28;20034;-38
2021/12/15 10:27:40;;;;;;;50.28;22.35;;;;;;;;;;5014205;28;20058;-38
2021/12/15 10:30:14;;;;;;;59.28;22.98;;;;;;;;;;5013620;28;20061;-40
2021/12/15 10:32:42;;;;;;;54.33;22.23;;;;;;;;;;5016658;28;20065;-42
2021/12/15 10:35:15;;;;;;;66.80;26.67;;;;;;;;;;5051371;28;20020;-38
2021/12/15 10:37:42;;;;;;;64.72;26.55;;;;;;;;;;5049900;28;20162;-38
2021/12/15 10:40:12;;;;;;;68.85;25.42;;;;;;;;;;5053190;28;20044;-37
2021/12/15 10:42:38;;;;;;;83.40;32.10;;;;;;;;;;5053099;28;20033;-42
2021/12/15 10:45:06;;;;;;;67.82;26.58;;;;;;;;;;5053524;28;20078;-38
2021/12/15 10:47:40;;;;;;;59.45;25.73;;;;;;;;;;5053260;28;20028;-40
2021/12/15 10:50:12;;;;;;;72.05;28.58;;;;;;;;;;5053330;28;20021;-38
2021/12/15 10:52:57;;;;;;;67.72;27.90;;;;;;;;;;5052108;28;20036;-39
2021/12/15 10:55:35;;;;;;;72.25;26.38;;;;;;;;;;5053257;28;20028;-38
2021/12/15 10:58:22;;;;;;;81.35;31.95;;;;;;;;;;5053228;28;20025;-38
2021/12/15 11:00:48;;;;;;;76.80;30.17;;;;;;;;;;5052739;28;20115;-39
2021/12/15 11:03:16;;;;;;;75.28;27.40;;;;;;;;;;5052902;28;20067;-39
2021/12/15 11:05:42;;;;;;;73.88;27.10;;;;;;;;;;5052828;28;20393;-38
2021/12/15 11:08:08;;;;;;;79.50;29.33;;;;;;;;;;5052780;28;20052;-41
2021/12/15 11:10:36;;;;;;;77.95;28.13;;;;;;;;;;5052559;28;20025;-37
2021/12/15 11:13:12;;;;;;;63.63;26.58;;;;;;;;;;5052672;28;20479;-38
2021/12/15 11:15:49;;;;;;;66.10;26.45;;;;;;;;;;5052888;28;20032;-38
2021/12/15 11:18:36;;;;;;;61.30;22.58;;;;;;;;;;5052664;28;20017;-38
2021/12/15 11:21:08;;;;;;;59.85;23.13;;;;;;;;;;5052748;28;20032;-38
2021/12/15 11:23:35;;;;;;;63.90;24.05;;;;;;;;;;5052255;28;20036;-39
2021/12/15 11:26:07;;;;;;;51.85;20.80;;;;;;;;;;5052676;28;20021;-37
2021/12/15 11:28:40;;;;;;;54.92;21.58;;;;;;;;;;5052418;28;20021;-37
2021/12/15 11:31:08;;;;;;;56.65;20.95;;;;;;;;;;5052473;28;20048;-38
2021/12/15 11:33:45;;;;;;;54.75;21.10;;;;;;;;;;5052328;28;20029;-38
2021/12/15 11:36:13;;;;;;;61.35;25.02;;;;;;;;;;5052559;28;20104;-38
2021/12/15 11:38:40;;;;;;;60.95;24.90;;;;;;;;;;5052628;28;20035;-39
2021/12/15 11:41:22;;;;;;;58.13;23.08;;;;;;;;;;5052202;28;20079;-38
2021/12/15 11:43:55;;;;;;;63.78;25.90;;;;;;;;;;5052347;28;20108;-39
2021/12/15 11:46:52;;;;;;;63.35;24.77;;;;;;;;;;5052446;28;20025;-38
2021/12/15 11:49:29;;;;;;;53.72;22.75;;;;;;;;;;5034713;28;20118;-38
2021/12/15 11:51:58;;;;;;;57.65;21.85;;;;;;;;;;5052031;28;20029;-39
2021/12/15 11:54:28;;;;;;;55.53;21.83;;;;;;;;;;5052183;28;20024;-38
2021/12/15 11:57:00;;;;;;;57.33;23.75;;;;;;;;;;5052487;28;20029;-40
2021/12/15 11:59:33;;;;;;;68.18;26.67;;;;;;;;;;5052357;28;20025;-39
2021/12/15 12:02:14;;;;;;;57.58;23.20;;;;;;;;;;5052028;28;20029;-40
2021/12/15 12:04:46;;;;;;;78.22;29.20;;;;;;;;;;5055619;28;20028;-39
2021/12/15 12:07:20;;;;;;;70.03;29.95;;;;;;;;;;5055179;28;20037;-39
2021/12/15 12:09:51;;;;;;;81.55;34.67;;;;;;;;;;5056378;28;20378;-38
2021/12/15 12:12:21;;;;;;;71.25;30.25;;;;;;;;;;5055582;28;20052;-38
2021/12/15 12:14:50;;;;;;;61.47;25.50;;;;;;;;;;5055877;28;20499;-39
2021/12/15 12:17:18;;;;;;;48.38;21.25;;;;;;;;;;5055674;28;20061;-39
2021/12/15 12:19:57;;;;;;;60.20;24.05;;;;;;;;;;5056088;28;20100;-40
2021/12/15 12:22:27;;;;;;;58.08;22.55;;;;;;;;;;5055736;28;20036;-38
2021/12/15 12:24:57;;;;;;;57.33;23.42;;;;;;;;;;5055467;28;20033;-39
2021/12/15 12:27:26;;;;;;;64.72;25.50;;;;;;;;;;5055583;28;20427;-39
2021/12/15 12:29:54;;;;;;;68.68;27.13;;;;;;;;;;5055895;28;20381;-37
2021/12/15 12:32:20;;;;;;;65.10;25.60;;;;;;;;;;5037586;28;20087;-39
2021/12/15 12:34:46;;;;;;;61.20;23.80;;;;;;;;;;5055485;28;20391;-40
2021/12/15 12:37:14;;;;;;;70.47;27.75;;;;;;;;;;5037106;28;20029;-41
2021/12/15 12:39:41;;;;;;;71.18;27.90;;;;;;;;;;5055765;28;20381;-41
2021/12/15 12:42:08;;;;;;;63.83;27.95;;;;;;;;;;5055329;28;20022;-39
2021/12/15 12:44:39;;;;;;;64.80;28.92;;;;;;;;;;5055473;28;20025;-39
2021/12/15 12:47:21;;;;;;;61.90;28.38;;;;;;;;;;5055209;28;20036;-39
2021/12/15 12:50:11;;;;;;;63.10;26.17;;;;;;;;;;5055673;28;20025;-39
2021/12/15 13:01:19;;;;;;;79.25;33.88;;;;;;;;;;5037683;28;20436;-38
2021/12/15 13:03:54;;;;;;;63.13;29.35;;;;;;;;;;5055018;28;20021;-39
2021/12/15 13:06:37;;;;;;;64.53;28.27;;;;;;;;;;5055075;28;20025;-41
2021/12/15 13:09:10;;;;;;;71.68;30.05;;;;;;;;;;5055202;28;20503;-39
2021/12/15 13:11:38;;;;;;;75.50;31.20;;;;;;;;;;5052727;28;20045;-40
2021/12/15 13:14:11;;;;;;;64.50;28.50;;;;;;;;;;5053038;28;20032;-39
2021/12/15 13:16:49;;;;;;;67.97;28.90;;;;;;;;;;5052955;28;20476;-41
2021/12/15 13:19:51;;;;;;;68.28;27.20;;;;;;;;;;5054420;28;20048;-40
2021/12/15 13:30:54;;;;;;;76.80;26.27;;;;;;;;;;5054334;28;20410;-44
2021/12/15 13:33:34;;;;;;;72.78;29.48;;;;;;;;;;5054706;28;20099;-40
2021/12/15 13:36:23;;;;;;;71.85;29.33;;;;;;;;;;5054355;28;20505;-43
2021/12/15 13:38:52;;;;;;;68.03;30.48;;;;;;;;;;5054335;28;20028;-41
2021/12/15 13:44:15;;;;;;;71.18;27.85;;;;;;;;;;5053725;28;20105;-42
2021/12/15 13:47:06;;;;;;;69.47;29.23;;;;;;;;;;5053710;28;20664;-43
2021/12/15 13:49:45;;;;;;;80.47;29.98;;;;;;;;;;5052924;28;20040;-41
2021/12/15 13:52:19;;;;;;;77.28;30.63;;;;;;;;;;5053994;28;20473;-40
2021/12/15 13:54:45;;;;;;;90.95;35.53;;;;;;;;;;5053545;28;20534;-44
2021/12/15 13:57:13;;;;;;;78.75;32.00;;;;;;;;;;5054133;28;20033;-42
2021/12/15 13:59:47;;;;;;;89.25;30.85;;;;;;;;;;5053912;28;20500;-39
2021/12/15 14:02:17;;;;;;;83.35;33.13;;;;;;;;;;5053833;28;20554;-40
2021/12/15 14:04:44;;;;;;;84.80;32.22;;;;;;;;;;5053932;28;20530;-38
2021/12/15 14:07:28;;;;;;;94.22;36.38;;;;;;;;;;5054060;28;20388;-43
2021/12/15 14:10:01;;;;;;;82.32;31.25;;;;;;;;;;5053551;28;20378;-42
2021/12/15 14:12:44;;;;;;;90.60;36.38;;;;;;;;;;5053291;28;20084;-44
2021/12/15 14:15:32;;;;;;;79.97;31.38;;;;;;;;;;5053005;28;20485;-41
2021/12/15 14:18:15;;;;;;;86.65;34.10;;;;;;;;;;5052008;28;20473;-41
2021/12/15 14:20:51;;;;;;;79.07;34.47;;;;;;;;;;5053505;28;20025;-40
2021/12/15 14:23:30;;;;;;;90.63;37.95;;;;;;;;;;5053878;28;20073;-41
2021/12/15 14:25:57;;;;;;;94.28;42.22;;;;;;;;;;5053306;28;20477;-42
2021/12/15 14:28:29;;;;;;;101.78;38.15;;;;;;;;;;5053393;28;20486;-42
2021/12/15 14:31:00;;;;;;;85.35;36.55;;;;;;;;;;5053371;28;20063;-43
2021/12/15 14:33:31;;;;;;;100.85;39.65;;;;;;;;;;5052946;28;20033;-41
2021/12/15 14:36:04;;;;;;;89.32;34.47;;;;;;;;;;5053399;28;20376;-38
2021/12/15 14:38:47;;;;;;;90.07;35.25;;;;;;;;;;5053309;28;20090;-40
2021/12/15 14:41:17;;;;;;;86.00;32.97;;;;;;;;;;5053112;28;20037;-40
2021/12/15 14:43:49;;;;;;;84.13;31.75;;;;;;;;;;5053261;28;20040;-40
2021/12/15 14:46:24;;;;;;;101.68;32.28;;;;;;;;;;5052389;28;20400;-39
2021/12/15 14:49:07;;;;;;;93.68;32.53;;;;;;;;;;5052721;28;20029;-39
2021/12/15 14:51:35;;;;;;;84.65;33.28;;;;;;;;;;5053109;28;20028;-41
2021/12/15 14:54:01;;;;;;;84.70;31.23;;;;;;;;;;5052895;28;20067;-39
2021/12/15 14:57:01;;;;;;;90.60;34.05;;;;;;;;;;5053149;28;20048;-44
2021/12/15 14:59:37;;;;;;;80.60;30.33;;;;;;;;;;5052912;28;20032;-42
2021/12/15 15:02:10;;;;;;;78.93;30.48;;;;;;;;;;5053111;28;20044;-45
2021/12/15 15:04:37;;;;;;;78.07;28.02;;;;;;;;;;5053052;28;20079;-40
2021/12/15 15:07:06;;;;;;;80.07;29.80;;;;;;;;;;5052726;28;20400;-42
2021/12/15 15:09:41;;;;;;;74.25;28.60;;;;;;;;;;5052629;28;20029;-40
2021/12/15 15:12:35;;;;;;;81.13;29.42;;;;;;;;;;5034898;28;20491;-40
2021/12/15 15:15:11;;;;;;;74.28;29.98;;;;;;;;;;5049599;28;20033;-39
2021/12/15 15:17:54;;;;;;;85.10;33.88;;;;;;;;;;5052920;28;20029;-39
2021/12/15 15:20:27;;;;;;;79.43;31.33;;;;;;;;;;5052901;28;20047;-41
2021/12/15 15:22:55;;;;;;;99.63;41.00;;;;;;;;;;5052750;28;20061;-40
2021/12/15 15:25:25;;;;;;;96.05;40.15;;;;;;;;;;5052468;28;20104;-40
2021/12/15 15:27:56;;;;;;;101.30;38.17;;;;;;;;;;5052449;28;20032;-39
2021/12/15 15:30:23;;;;;;;;;;;;;;;;;;5052826;28;20044;-39
2021/12/15 15:32:53;;;;;;;72.78;31.92;;;;;;;;;;5052132;28;19919;-39
2021/12/15 15:35:23;;;;;;;60.75;29.33;;;;;;;;;;5052274;28;20025;-40
2021/12/15 15:37:51;;;;;;;75.57;30.52;;;;;;;;;;5051801;28;20298;-41
2021/12/15 15:40:27;;;;;;;69.55;27.45;;;;;;;;;;5052590;28;20025;-40
2021/12/15 15:42:59;;;;;;;73.45;31.15;;;;;;;;;;5052505;28;20124;-39
2021/12/15 15:45:29;;;;;;;80.43;32.90;;;;;;;;;;5050953;28;20028;-39
2021/12/15 15:47:57;;;;;;;88.05;32.60;;;;;;;;;;5052241;28;20029;-41
2021/12/15 15:50:24;;;;;;;78.15;31.92;;;;;;;;;;5052217;28;20084;-41
2021/12/15 15:52:52;;;;;;;74.53;32.78;;;;;;;;;;5052028;28;20515;-39
2021/12/15 15:55:19;;;;;;;77.40;32.55;;;;;;;;;;5051452;28;20488;-43
2021/12/15 15:57:51;;;;;;;81.20;33.38;;;;;;;;;;5051767;28;20385;-41
2021/12/15 16:00:19;;;;;;;81.15;33.17;;;;;;;;;;5051259;28;20025;-41
2021/12/15 16:02:45;;;;;;;85.68;34.60;;;;;;;;;;5051881;28;20029;-40
2021/12/15 16:05:12;;;;;;;76.78;31.75;;;;;;;;;;5052232;28;20480;-43
2021/12/15 16:07:38;;;;;;;79.13;30.05;;;;;;;;;;5051424;28;20017;-44
2021/12/15 16:10:07;;;;;;;77.22;29.52;;;;;;;;;;5052035;28;20166;-44
2021/12/15 16:12:37;;;;;;;77.30;30.25;;;;;;;;;;5051897;28;20056;-38
2021/12/15 16:15:04;;;;;;;77.45;31.25;;;;;;;;;;5052033;28;20029;-39
2021/12/15 16:17:43;;;;;;;81.53;34.15;;;;;;;;;;5052077;28;20033;-44
2021/12/15 16:20:37;;;;;;;85.68;37.67;;;;;;;;;;5051943;28;20025;-43
2021/12/15 16:23:02;;;;;;;80.40;34.90;;;;;;;;;;5051364;28;20500;-39
2021/12/15 16:25:30;;;;;;;96.85;40.47;;;;;;;;;;5051854;28;20025;-42
2021/12/15 16:28:02;;;;;;;102.90;40.97;;;;;;;;;;5051898;28;20040;-38
2021/12/15 16:30:38;;;;;;;108.45;49.15;;;;;;;;;;5051867;28;20035;-41
2021/12/15 16:33:07;;;;;;;116.40;49.47;;;;;;;;;;5052048;28;20384;-39
2021/12/15 16:35:36;;;;;;;119.05;55.10;;;;;;;;;;5052009;28;20029;-44
2021/12/15 16:38:30;;;;;;;115.57;45.25;;;;;;;;;;5051821;28;20065;-46
2021/12/15 16:41:10;;;;;;;101.90;37.40;;;;;;;;;;5051461;28;20117;-38
2021/12/15 16:43:52;;;;;;;101.40;34.70;;;;;;;;;;5051979;28;20388;-43
2021/12/15 16:46:29;;;;;;;94.80;38.90;;;;;;;;;;5051138;28;20392;-38
2021/12/15 16:48:57;;;;;;;109.38;41.42;;;;;;;;;;5051934;28;20025;-38